Havana, Texas
Current Conditions -  °F | °C
As of 9:53 AM on Friday 28 Nov 2014 (Local Time) from KMFE Reporting Station
Clear Clear  
Wind Chill: 65°   Ceiling: Unl
Heat Index: 65°   Visibility: 10mi
Dew Point: 58°   Wind: 3mph
Humidity: 78%   Direction: 120°ESE
Pressure: 30.33"   Gusts: NA
Location:  26.2167°N, 98.325°W
Report Text: KMFE 281553Z 12003KT 10SM CLR 18/14 A3033 RMK AO2 SLP268 T01830144
Loading
Personal Weather Stations






























Interactive Weather Map New forecast layout! Learn more

10-Day Weather Forecast

Advertisements
Track Severe Weather on mobile